Main page
METAR-TAF:

METAR-TAF

Airports :

Funafuti, Tuvalu

Funafuti International Airport

latitude: 08-31S, longitude: 179-13E, elevation: 1 m

METAR: missing

Time: 14:15 (02:15 UTC)

Forecast

The report was made 3 hours and 2 minutes ago, at 23:13 UTC
Forecast valid from 27 at 00 UTC to 27 at 24 UTC
Wind 8 kt from the East
Visibility 10 km or more
Scattered clouds at a height of 1800 ft
Scattered clouds at a height of 10000 ft
Probability 30% :
Temporary
from 27 at 00 UTC to 27 at 06 UTC
Visibility: 7000 m
Broken clouds at a height of 1500 ft
Few clouds at a height of 1800 ft, Cumulonimbus.
thunderstorm, rain
Probability 30% :
Temporary
from 27 at 15 UTC to 27 at 24 UTC
Visibility: 7000 m
Broken clouds at a height of 1500 ft
Few clouds at a height of 1700 ft, Cumulonimbus.
thunderstorm, rain

TAF: NGFU 262313Z 2700/2724 09008KT 9999 SCT018 SCT100 PROB30 TEMPO 2700/2706 7000 TSRA BKN015 FEW018CB PROB30 TEMPO 2715/2724 7000 TSRA BKN015 FEW017CB

Weather observations and forecasts of more than 4000 airports (METAR and TAF reports).

The available stations are represented by yellow and red dots on the map.

Hover mouse over dot to see the name of the station.

Then click to see weather observations and forecasts.

To change the map : click on the green buttons with a black cross to zoom in, on the green button with a dash to zoom out, or on the green arrows for adjacent maps.


METAR-TAF: